Isle Of Wight, Virginia
Current Conditions -  °F | °C
As of 11:58 AM on Thursday 29 Jan 2015 (Local Time) from KFAF Reporting Station
Few Clouds Few Clouds  
Wind Chill: 31°   Ceiling: Unl
Heat Index: 37°   Visibility: 10mi
Dew Point: 24°   Wind: 7mph
Humidity: 59%   Direction: 230°SW
Pressure: 30.29"   Gusts: NA
Location:  36.91°N, 76.71°W
Report Text: KFAF 291658Z AUTO 23006KT 10SM FEW200 03/M05 A3029 RMK AO2 SLP260 T00261046 $
Loading
Personal Weather Stations






























Interactive Weather Map New forecast layout! Learn more

10-Day Weather Forecast

Advertisements
Track Severe Weather on mobile